Time;durP1;ratioP1;P1;durP2;ratioP2;P2;SDS_P1;SDS_P2;PMS_P1;PMS_P2;Temp;Humidity;BMP_temperature;BMP_pressure;BME280_temperature;BME280_humidity;BME280_pressure;Samples;Min_cycle;Max_cycle;Signal;HPM_P1;HPM_P2
2022/11/13 00:01:48;;;;;;;;;;;;;;;22.14;56.99;102191.63;7256534;19;153243;-57
2022/11/13 00:04:15;;;;;;;;;;;;;;;22.15;57.29;102196.16;7257797;19;154168;-58
2022/11/13 00:06:41;;;;;;;;;;;;;;;22.15;57.55;102193.34;7255195;19;154779;-57
2022/11/13 00:09:10;;;;;;;;;;;;;;;22.15;57.60;102182.06;7254296;19;152333;-57
2022/11/13 00:11:37;;;;;;;;;;;;;;;22.15;57.44;102182.06;7264683;19;153983;-58
2022/11/13 00:14:04;;;;;;;;;;;;;;;22.14;57.56;102172.78;7256048;19;154348;-57
2022/11/13 00:16:31;;;;;;;;;;;;;;;22.14;57.81;102177.56;7252846;19;152809;-57
2022/11/13 00:18:58;;;;;;;;;;;;;;;22.14;57.82;102175.59;7255442;19;153946;-57
2022/11/13 00:21:26;;;;;;;;;;;;;;;22.13;57.82;102168.28;7256623;19;154679;-57
2022/11/13 00:23:53;;;;;;;;;;;;;;;22.13;57.78;102170.25;7254048;19;154186;-57
2022/11/13 00:26:21;;;;;;;;;;;;;;;22.14;57.83;102174.75;7257107;19;153605;-57
2022/11/13 00:28:52;;;;;;;;;;;;;;;22.13;58.01;102167.44;7254884;19;152119;-57
2022/11/13 00:31:19;;;;;;;;;;;;;;;22.12;58.10;102165.78;7256266;19;153811;-57
2022/11/13 00:33:46;;;;;;;;;;;;;;;22.11;58.22;102159.28;7265689;19;154551;-57
2022/11/13 00:36:33;;;;;;;;;;;;;;;22.11;58.47;102161.28;7255142;19;155087;-57
2022/11/13 00:39:00;;;;;;;;;;;;;;;22.10;58.70;102160.41;7254754;19;155164;-58
2022/11/13 00:41:27;;;;;;;;;;;;;;;22.12;58.36;102162.97;7256810;19;152425;-57
2022/11/13 00:43:54;;;;;;;;;;;;;;;22.11;58.71;102156.47;7256185;19;153815;-57
2022/11/13 00:46:20;;;;;;;;;;;;;;;22.10;58.64;102157.59;7256025;19;153766;-57
2022/11/13 00:48:47;;;;;;;;;;;;;;;22.11;58.71;102155.63;7253738;19;153951;-57
2022/11/13 00:51:14;;;;;;;;;;;;;;;22.11;58.21;102147.19;7255071;19;153775;-57
2022/11/13 00:53:41;;;;;;;;;;;;;;;22.10;58.31;102153.94;7254335;19;154535;-57
2022/11/13 00:56:09;;;;;;;;;;;;;;;22.09;58.83;102146.63;7260144;19;153274;-57
2022/11/13 00:58:36;;;;;;;;;;;;;;;22.08;58.45;102139.31;7254938;19;154143;-57
2022/11/13 01:01:05;;;;;;;;;;;;;;;22.07;58.74;102144.13;7255299;19;153790;-57
2022/11/13 01:03:32;;;;;;;;;;;;;;;22.07;58.44;102134.84;7261447;19;153950;-58
2022/11/13 01:05:59;;;;;;;;;;;;;;;22.06;58.84;102135.97;7259239;19;155886;-57
2022/11/13 01:08:26;;;;;;;;;;;;;;;22.05;58.80;102132.28;7260600;19;154078;-57
2022/11/13 01:10:53;;;;;;;;;;;;;;;22.05;58.80;102126.66;7257624;19;152459;-56
2022/11/13 01:13:20;;;;;;;;;;;;;;;22.04;58.85;102135.41;7260844;19;153960;-57
2022/11/13 01:15:47;;;;;;;;;;;;;;;22.02;59.08;102132.88;7257385;19;154424;-57
2022/11/13 01:18:14;;;;;;;;;;;;;;;22.02;59.12;102137.66;7267919;19;154307;-57
2022/11/13 01:20:40;;;;;;;;;;;;;;;22.01;59.24;102136.81;7263555;19;153321;-57
2022/11/13 01:23:07;;;;;;;;;;;;;;;21.99;59.09;102133.44;7261712;19;153347;-57
2022/11/13 01:25:35;;;;;;;;;;;;;;;21.99;59.31;102127.81;7260247;19;154986;-57
2022/11/13 01:28:02;;;;;;;;;;;;;;;21.97;59.32;102124.47;7257341;19;152621;-57
2022/11/13 01:30:29;;;;;;;;;;;;;;;21.97;59.12;102132.91;7260861;19;154511;-57
2022/11/13 01:32:55;;;;;;;;;;;;;;;21.97;59.29;102132.91;7259241;19;154659;-59
2022/11/13 01:35:22;;;;;;;;;;;;;;;21.96;59.52;102136.84;7261723;19;153015;-59
2022/11/13 01:37:49;;;;;;;;;;;;;;;21.96;59.56;102124.75;7260703;19;155882;-59
2022/11/13 01:40:16;;;;;;;;;;;;;;;21.94;59.59;102133.47;7269254;19;152999;-58
2022/11/13 01:42:43;;;;;;;;;;;;;;;21.93;59.44;102120.56;7258561;19;154089;-57
2022/11/13 01:45:19;;;;;;;;;;;;;;;21.95;59.76;102125.88;7259392;19;153867;-57
2022/11/13 01:47:46;;;;;;;;;;;;;;;21.93;59.50;102130.97;7263486;19;152881;-57
2022/11/13 01:50:13;;;;;;;;;;;;;;;21.94;59.66;102141.09;7261160;19;153132;-57
2022/11/13 01:52:41;;;;;;;;;;;;;;;21.91;59.75;102127.56;7260163;19;154257;-57
2022/11/13 01:55:11;;;;;;;;;;;;;;;21.89;59.63;102127.88;7259550;19;154388;-57
2022/11/13 01:57:38;;;;;;;;;;;;;;;21.88;59.94;102123.34;7257624;19;152915;-57
2022/11/13 02:00:07;;;;;;;;;;;;;;;21.88;59.89;102122.50;7266529;19;154753;-57
2022/11/13 02:02:33;;;;;;;;;;;;;;;21.87;59.92;102120.81;7261772;19;155071;-58
2022/11/13 02:05:00;;;;;;;;;;;;;;;21.86;60.05;102116.31;7256979;19;155226;-57
2022/11/13 02:07:27;;;;;;;;;;;;;;;21.86;60.28;102116.31;7259617;19;153635;-57
2022/11/13 02:09:55;;;;;;;;;;;;;;;21.84;60.29;102110.16;7260693;19;153346;-57
2022/11/13 02:12:29;;;;;;;;;;;;;;;21.83;60.45;102109.31;7256540;19;152301;-57
2022/11/13 02:14:57;;;;;;;;;;;;;;;21.82;60.23;102102.00;7257019;19;154216;-57
2022/11/13 02:17:28;;;;;;;;;;;;;;;21.83;60.13;102102.84;7259457;19;153012;-58
2022/11/13 02:19:56;;;;;;;;;;;;;;;21.81;60.54;102100.31;7261515;19;154274;-58
2022/11/13 02:22:27;;;;;;;;;;;;;;;21.81;60.36;102096.66;7265659;19;154538;-58
2022/11/13 02:24:56;;;;;;;;;;;;;;;21.78;60.26;102095.28;7260630;19;152922;-57
2022/11/13 02:27:26;;;;;;;;;;;;;;;21.78;60.36;102088.78;7257940;19;152988;-57
2022/11/13 02:29:53;;;;;;;;;;;;;;;21.78;60.30;102085.97;7258383;19;153657;-57
2022/11/13 02:32:20;;;;;;;;;;;;;;;21.76;60.59;102077.00;7256187;19;153839;-57
2022/11/13 02:34:47;;;;;;;;;;;;;;;21.73;60.48;102079.25;7257935;19;152572;-57
2022/11/13 02:37:13;;;;;;;;;;;;;;;21.73;60.71;102079.25;7256204;19;154483;-57
2022/11/13 02:39:40;;;;;;;;;;;;;;;21.72;60.85;102076.72;7257724;19;155172;-57
2022/11/13 02:42:07;;;;;;;;;;;;;;;21.71;60.88;102075.88;7260821;19;153932;-57
2022/11/13 02:44:33;;;;;;;;;;;;;;;21.69;61.01;102069.72;7263512;19;154252;-57
2022/11/13 02:47:00;;;;;;;;;;;;;;;21.70;60.68;102073.38;7257629;19;154928;-57
2022/11/13 02:49:28;;;;;;;;;;;;;;;21.69;60.84;102078.16;7261782;19;154490;-57
2022/11/13 02:51:55;;;;;;;;;;;;;;;21.67;60.67;102071.97;7258553;19;154679;-58
2022/11/13 02:54:21;;;;;;;;;;;;;;;21.67;60.80;102074.78;7261784;19;154248;-57
2022/11/13 02:56:48;;;;;;;;;;;;;;;21.65;61.05;102071.44;7258683;19;153361;-57
2022/11/13 02:59:15;;;;;;;;;;;;;;;21.67;60.90;102068.31;7254807;19;156316;-57
2022/11/13 03:01:41;;;;;;;;;;;;;;;21.66;60.96;102067.50;7259434;19;153742;-57
2022/11/13 03:04:08;;;;;;;;;;;;;;;21.67;61.17;102068.31;7259642;19;153371;-57
2022/11/13 03:06:35;;;;;;;;;;;;;;;21.66;61.07;102064.69;7266984;19;155148;-57
2022/11/13 03:09:01;;;;;;;;;;;;;;;21.67;60.96;102073.94;7260553;19;153691;-57
2022/11/13 03:11:28;;;;;;;;;;;;;;;21.66;61.01;102066.66;7258524;19;153567;-57
2022/11/13 03:13:55;;;;;;;;;;;;;;;21.63;61.17;102068.03;7257024;19;153288;-57
2022/11/13 03:16:22;;;;;;;;;;;;;;;21.63;60.89;102068.03;7259559;19;153585;-58
2022/11/13 03:18:48;;;;;;;;;;;;;;;21.61;61.12;102067.50;7259432;19;154292;-57
2022/11/13 03:21:15;;;;;;;;;;;;;;;21.60;61.07;102064.97;7260754;19;153559;-57
2022/11/13 03:23:44;;;;;;;;;;;;;;;21.59;61.03;102060.47;7259020;19;153940;-57
2022/11/13 03:26:12;;;;;;;;;;;;;;;21.58;61.11;102068.06;7253558;19;155318;-57
2022/11/13 03:28:39;;;;;;;;;;;;;;;21.58;61.23;102070.88;7262964;19;154043;-57
2022/11/13 03:31:05;;;;;;;;;;;;;;;21.55;61.31;102068.66;7255379;19;153607;-58
2022/11/13 03:33:32;;;;;;;;;;;;;;;21.55;61.41;102079.06;7260573;19;154504;-57
2022/11/13 03:35:59;;;;;;;;;;;;;;;21.56;61.63;102077.94;7257512;19;153939;-57
2022/11/13 03:38:25;;;;;;;;;;;;;;;21.54;61.23;102083.84;7250165;19;155012;-57
2022/11/13 03:40:53;;;;;;;;;;;;;;;21.53;61.27;102079.34;7257494;19;153605;-57
2022/11/13 03:43:20;;;;;;;;;;;;;;;21.51;61.59;102076.00;7258524;19;153614;-57
2022/11/13 03:45:47;;;;;;;;;;;;;;;21.53;61.29;102072.91;7255968;19;154099;-57
2022/11/13 03:48:14;;;;;;;;;;;;;;;21.52;61.29;102069.25;7255711;19;155017;-57
2022/11/13 03:50:42;;;;;;;;;;;;;;;21.51;61.68;102059.13;7263998;19;152745;-57
2022/11/13 03:53:11;;;;;;;;;;;;;;;21.52;61.53;102057.16;7254657;19;153742;-57
2022/11/13 03:55:37;;;;;;;;;;;;;;;21.49;61.85;102050.13;7256358;19;153542;-57
2022/11/13 03:58:04;;;;;;;;;;;;;;;21.49;61.56;102049.28;7254459;19;153906;-57
2022/11/13 04:00:31;;;;;;;;;;;;;;;21.48;62.00;102040.03;7258573;19;152872;-57
2022/11/13 04:02:58;;;;;;;;;;;;;;;21.48;61.78;102045.66;7255780;19;153437;-56
2022/11/13 04:05:25;;;;;;;;;;;;;;;21.48;62.08;102037.22;7256654;19;154922;-56
2022/11/13 04:07:52;;;;;;;;;;;;;;;21.48;61.66;102042.00;7259723;19;153475;-57
2022/11/13 04:10:19;;;;;;;;;;;;;;;21.48;61.87;102042.00;7262348;19;153396;-57
2022/11/13 04:12:45;;;;;;;;;;;;;;;21.47;61.85;102043.97;7258797;19;153018;-57
2022/11/13 04:15:12;;;;;;;;;;;;;;;21.46;62.10;102042.25;7255252;19;152466;-58
2022/11/13 04:17:39;;;;;;;;;;;;;;;21.47;61.69;102034.69;7249888;19;154604;-58
2022/11/13 04:20:06;;;;;;;;;;;;;;;21.46;62.19;102030.16;7260195;19;155142;-57
2022/11/13 04:22:33;;;;;;;;;;;;;;;21.45;62.30;102022.84;7255046;19;153180;-58
2022/11/13 04:25:00;;;;;;;;;;;;;;;21.43;62.06;102019.50;7259119;19;154565;-58
2022/11/13 04:27:26;;;;;;;;;;;;;;;21.43;62.33;102016.69;7253025;19;155344;-58
2022/11/13 04:29:53;;;;;;;;;;;;;;;21.42;62.26;102015.84;7255508;19;153639;-58
2022/11/13 04:32:20;;;;;;;;;;;;;;;21.42;61.93;102020.63;7263247;19;155430;-58
2022/11/13 04:34:46;;;;;;;;;;;;;;;21.40;62.46;102018.09;7257564;19;153323;-58
2022/11/13 04:37:13;;;;;;;;;;;;;;;21.39;62.37;102019.25;7255552;19;155195;-58
2022/11/13 04:39:40;;;;;;;;;;;;;;;21.38;62.27;102017.56;7264670;19;153262;-58
2022/11/13 04:44:43;;;;;;;;;;;;;;;21.37;62.36;102015.03;7259225;19;156089;-58
2022/11/13 04:47:10;;;;;;;;;;;;;;;21.36;62.44;102019.81;7263383;19;153684;-58
2022/11/13 04:49:37;;;;;;;;;;;;;;;21.34;62.64;102013.66;7262343;19;154256;-58
2022/11/13 04:52:04;;;;;;;;;;;;;;;21.34;62.39;102004.38;7260206;19;153021;-57
2022/11/13 04:54:30;;;;;;;;;;;;;;;21.35;62.29;102014.50;7267308;19;153640;-57
2022/11/13 04:56:57;;;;;;;;;;;;;;;21.33;62.39;102003.53;7262035;19;154338;-58
2022/11/13 04:59:24;;;;;;;;;;;;;;;21.34;62.29;102005.22;7258617;19;153869;-58
2022/11/13 05:01:50;;;;;;;;;;;;;;;21.34;62.69;102012.81;7263741;19;154189;-57
2022/11/13 05:04:17;;;;;;;;;;;;;;;21.34;62.69;102005.22;7260941;19;155972;-57
2022/11/13 05:06:44;;;;;;;;;;;;;;;21.33;62.58;102006.34;7262270;19;153536;-57
2022/11/13 05:09:11;;;;;;;;;;;;;;;21.33;62.73;102008.31;7265146;19;153559;-57
2022/11/13 05:11:37;;;;;;;;;;;;;;;21.33;62.58;102005.50;7259778;19;154156;-57
2022/11/13 05:14:04;;;;;;;;;;;;;;;21.33;62.28;102003.53;7262988;19;153358;-57
2022/11/13 05:16:33;;;;;;;;;;;;;;;21.32;62.37;101999.03;7263783;19;153819;-58
2022/11/13 05:19:00;;;;;;;;;;;;;;;21.31;62.81;102002.97;7264213;19;153689;-57
2022/11/13 05:21:26;;;;;;;;;;;;;;;21.29;62.49;101994.84;7262378;19;154351;-57
2022/11/13 05:23:53;;;;;;;;;;;;;;;21.28;62.91;101983.88;7260740;19;153061;-57
2022/11/13 05:26:20;;;;;;;;;;;;;;;21.27;62.65;101985.84;7262062;19;154151;-57
2022/11/13 05:28:46;;;;;;;;;;;;;;;21.26;62.77;101975.72;7264169;19;153459;-57
2022/11/13 05:31:14;;;;;;;;;;;;;;;21.25;62.90;101970.41;7259316;19;153588;-57
2022/11/13 05:33:42;;;;;;;;;;;;;;;21.24;62.54;101963.09;7261513;19;152261;-57
2022/11/13 05:36:10;;;;;;;;;;;;;;;21.23;62.59;101964.22;7261204;19;153427;-57
2022/11/13 05:38:37;;;;;;;;;;;;;;;21.23;62.75;101956.63;7244054;19;154990;-57
2022/11/13 05:41:05;;;;;;;;;;;;;;;21.21;62.57;101961.69;7257525;19;153609;-58
2022/11/13 05:43:32;;;;;;;;;;;;;;;21.21;62.75;101958.06;7255682;19;154825;-57
2022/11/13 05:46:03;;;;;;;;;;;;;;;21.19;62.59;101949.91;7258553;19;153762;-58
2022/11/13 05:48:30;;;;;;;;;;;;;;;21.20;62.97;101945.13;7259519;19;154575;-58
2022/11/13 05:51:01;;;;;;;;;;;;;;;21.19;62.57;101947.09;7259398;19;155727;-59
2022/11/13 05:53:28;;;;;;;;;;;;;;;21.18;62.53;101938.94;7259554;19;153792;-57
2022/11/13 05:55:58;;;;;;;;;;;;;;;21.19;62.56;101940.63;7262615;19;153493;-57
2022/11/13 05:58:26;;;;;;;;;;;;;;;21.18;62.90;101933.31;7261554;19;155059;-58
2022/11/13 06:00:53;;;;;;;;;;;;;;;21.17;63.06;101937.25;7264643;19;154553;-59
2022/11/13 06:03:20;;;;;;;;;;;;;;;21.16;62.78;101932.78;7261027;19;153309;-57
2022/11/13 06:05:47;;;;;;;;;;;;;;;21.15;62.75;101931.09;7260018;19;152399;-57
2022/11/13 06:08:13;;;;;;;;;;;;;;;21.15;62.88;101925.47;7262738;19;154480;-57
2022/11/13 06:10:40;;;;;;;;;;;;;;;21.14;62.79;101921.81;7257198;19;154176;-57
2022/11/13 06:13:07;;;;;;;;;;;;;;;21.13;62.94;101911.72;7259548;19;153948;-58
2022/11/13 06:15:34;;;;;;;;;;;;;;;21.12;62.80;101909.97;7258776;19;154420;-58
2022/11/13 06:18:00;;;;;;;;;;;;;;;21.12;62.78;101904.38;7259009;19;155188;-58
2022/11/13 06:20:27;;;;;;;;;;;;;;;21.11;62.89;101902.72;7267627;19;152504;-58
2022/11/13 06:22:53;;;;;;;;;;;;;;;21.11;62.72;101904.69;7259156;19;154145;-58
2022/11/13 06:25:20;;;;;;;;;;;;;;;21.11;62.75;101897.09;7260785;19;153653;-58
2022/11/13 06:27:47;;;;;;;;;;;;;;;21.11;63.03;101890.63;7257431;19;154397;-57
2022/11/13 06:30:14;;;;;;;;;;;;;;;21.10;63.00;101892.59;7259072;19;153625;-58
2022/11/13 06:32:40;;;;;;;;;;;;;;;21.09;62.91;101892.88;7260614;19;154266;-58
2022/11/13 06:35:07;;;;;;;;;;;;;;;21.08;62.73;101894.84;7258952;19;153840;-58
2022/11/13 06:37:34;;;;;;;;;;;;;;;21.07;63.12;101889.53;7257434;19;156713;-57
2022/11/13 06:40:00;;;;;;;;;;;;;;;21.07;62.78;101881.94;7257482;19;153992;-58
2022/11/13 06:42:27;;;;;;;;;;;;;;;21.08;63.10;101885.56;7266444;19;153656;-57
2022/11/13 06:44:55;;;;;;;;;;;;;;;21.07;62.76;101892.34;7259686;19;154091;-58
2022/11/13 06:47:22;;;;;;;;;;;;;;;21.06;62.75;101888.69;7260228;19;153604;-58
2022/11/13 06:49:48;;;;;;;;;;;;;;;21.05;62.89;101886.16;7258749;19;153417;-59
2022/11/13 06:52:15;;;;;;;;;;;;;;;21.05;62.87;101888.97;7255276;19;153498;-58
2022/11/13 06:54:42;;;;;;;;;;;;;;;21.05;62.95;101892.63;7262306;19;154080;-58
2022/11/13 06:57:08;;;;;;;;;;;;;;;21.05;62.85;101901.03;7259924;19;154123;-58
2022/11/13 06:59:35;;;;;;;;;;;;;;;21.04;62.98;101890.94;7256239;19;152961;-58
2022/11/13 07:02:02;;;;;;;;;;;;;;;21.04;62.87;101890.94;7258015;19;153993;-58
2022/11/13 07:04:29;;;;;;;;;;;;;;;21.02;63.02;101890.41;7266070;19;153911;-58
2022/11/13 07:06:56;;;;;;;;;;;;;;;21.02;63.05;101893.19;7258591;19;153748;-58
2022/11/13 07:09:23;;;;;;;;;;;;;;;21.02;62.65;101897.97;7260470;19;153940;-58
2022/11/13 07:11:49;;;;;;;;;;;;;;;21.01;62.92;101893.47;7258636;19;153858;-59
2022/11/13 07:14:16;;;;;;;;;;;;;;;21.00;63.08;101898.25;7255740;19;155188;-58
2022/11/13 07:16:43;;;;;;;;;;;;;;;20.99;62.64;101893.75;7256755;19;153801;-57
2022/11/13 07:19:29;;;;;;;;;;;;;;;20.98;63.11;101896.88;7257526;19;153555;-58
2022/11/13 07:21:56;;;;;;;;;;;;;;;20.99;63.28;101899.38;7257669;19;153834;-58
2022/11/13 07:24:23;;;;;;;;;;;;;;;21.00;62.81;101895.44;7259075;19;154043;-58
2022/11/13 07:26:49;;;;;;;;;;;;;;;20.99;62.94;101895.72;7263675;19;153750;-57
2022/11/13 07:29:16;;;;;;;;;;;;;;;20.98;62.62;101899.69;7258900;19;154042;-58
2022/11/13 07:31:43;;;;;;;;;;;;;;;20.97;62.53;101903.63;7257133;19;154793;-58
2022/11/13 07:34:10;;;;;;;;;;;;;;;20.96;62.85;101899.97;7258386;19;152290;-58
2022/11/13 07:36:36;;;;;;;;;;;;;;;20.94;62.82;101896.59;7256566;19;155092;-58
2022/11/13 07:39:03;;;;;;;;;;;;;;;20.94;62.89;101902.22;7257810;19;153168;-58
2022/11/13 07:41:30;;;;;;;;;;;;;;;20.94;62.59;101901.41;7257016;19;153786;-58
2022/11/13 07:43:56;;;;;;;;;;;;;;;20.94;62.33;101907.00;7255388;19;154692;-58
2022/11/13 07:46:23;;;;;;;;;;;;;;;20.94;62.69;101912.63;7254638;19;154125;-57
2022/11/13 07:48:50;;;;;;;;;;;;;;;20.96;62.36;101901.94;7262469;19;154146;-58
2022/11/13 07:51:16;;;;;;;;;;;;;;;20.98;62.37;101906.16;7258198;19;154258;-58
2022/11/13 07:53:43;;;;;;;;;;;;;;;20.88;61.77;101910.97;7257560;19;154289;-58
2022/11/13 07:56:10;;;;;;;;;;;;;;;20.88;61.54;101919.38;7256425;19;154019;-58
2022/11/13 07:58:37;;;;;;;;;;;;;;;20.94;62.22;101913.44;7256998;19;152945;-58
2022/11/13 08:01:04;;;;;;;;;;;;;;;20.97;62.78;101921.31;7256251;19;154764;-58
2022/11/13 08:03:31;;;;;;;;;;;;;;;21.00;62.77;101908.66;7255491;19;154702;-58
2022/11/13 08:06:00;;;;;;;;;;;;;;;21.05;63.33;101908.63;7257322;19;153327;-58
2022/11/13 08:08:27;;;;;;;;;;;;;;;21.09;63.36;101909.72;7256648;19;154975;-61
2022/11/13 08:10:54;;;;;;;;;;;;;;;21.14;63.77;101909.75;7265959;19;153963;-58
2022/11/13 08:13:21;;;;;;;;;;;;;;;21.17;64.35;101911.97;7264211;19;154106;-58
2022/11/13 08:15:48;;;;;;;;;;;;;;;21.22;64.49;101903.50;7262933;19;154355;-58
2022/11/13 08:18:14;;;;;;;;;;;;;;;21.26;64.30;101902.63;7258719;19;154263;-58
2022/11/13 08:20:41;;;;;;;;;;;;;;;21.32;64.46;101908.22;7263624;19;153339;-58
2022/11/13 08:23:08;;;;;;;;;;;;;;;21.38;64.23;101907.91;7262633;19;154736;-58
2022/11/13 08:25:35;;;;;;;;;;;;;;;21.42;64.16;101906.19;7265081;19;152199;-58
2022/11/13 08:28:02;;;;;;;;;;;;;;;21.46;64.48;101907.28;7260726;19;154415;-58
2022/11/13 08:30:34;;;;;;;;;;;;;;;21.51;64.52;101912.03;7268798;19;153560;-59
2022/11/13 08:33:01;;;;;;;;;;;;;;;21.57;64.17;101908.06;7265347;19;153955;-59
2022/11/13 08:35:29;;;;;;;;;;;;;;;21.63;63.96;101909.69;7261287;19;154729;-59
2022/11/13 08:38:05;;;;;;;;;;;;;;;21.67;63.91;101907.97;7265326;19;154715;-59
2022/11/13 08:40:32;;;;;;;;;;;;;;;21.71;63.91;101915.53;7263431;19;152594;-59
2022/11/13 08:43:00;;;;;;;;;;;;;;;21.76;63.64;101908.22;7260838;19;153674;-59
2022/11/13 08:45:27;;;;;;;;;;;;;;;21.80;64.31;101896.09;7260273;19;154878;-58
2022/11/13 08:47:57;;;;;;;;;;;;;;;21.85;64.28;101900.84;7260963;19;152260;-60
2022/11/13 08:50:24;;;;;;;;;;;;;;;21.88;64.26;101895.44;7260932;19;154579;-58
2022/11/13 08:52:53;;;;;;;;;;;;;;;21.93;64.12;101900.22;7269721;19;154004;-58
2022/11/13 08:55:20;;;;;;;;;;;;;;;21.96;63.95;101899.63;7260888;19;153962;-58
2022/11/13 08:57:47;;;;;;;;;;;;;;;21.99;63.49;101896.22;7260997;19;153445;-58
2022/11/13 09:00:14;;;;;;;;;;;;;;;22.01;63.71;101899.59;7260178;19;154250;-58
2022/11/13 09:02:41;;;;;;;;;;;;;;;22.03;63.38;101895.31;7263951;19;156790;-58
2022/11/13 09:05:08;;;;;;;;;;;;;;;22.04;63.42;101891.38;7263670;19;152835;-58
2022/11/13 09:07:35;;;;;;;;;;;;;;;22.07;63.47;101890.81;7258783;19;154669;-58
2022/11/13 09:10:02;;;;;;;;;;;;;;;22.09;62.86;101896.13;7260488;19;154637;-58
2022/11/13 09:12:29;;;;;;;;;;;;;;;22.11;62.78;101893.88;7258525;19;153833;-58
2022/11/13 09:14:56;;;;;;;;;;;;;;;22.12;62.84;101892.72;7268744;19;153010;-58
2022/11/13 09:17:23;;;;;;;;;;;;;;;22.13;62.40;101897.19;7262240;19;152560;-58
2022/11/13 09:19:49;;;;;;;;;;;;;;;22.13;62.64;101892.41;7263633;19;155802;-58
2022/11/13 09:22:16;;;;;;;;;;;;;;;22.15;62.77;101883.69;7258242;19;154390;-58
2022/11/13 09:24:43;;;;;;;;;;;;;;;22.16;62.29;101877.78;7259625;19;154448;-58
2022/11/13 09:27:09;;;;;;;;;;;;;;;22.16;62.07;101880.59;7262461;19;154190;-58
2022/11/13 09:29:36;;;;;;;;;;;;;;;22.18;62.14;101883.94;7258614;19;154807;-58
2022/11/13 09:32:03;;;;;;;;;;;;;;;22.19;62.32;101884.78;7261737;19;153947;-58
2022/11/13 09:34:30;;;;;;;;;;;;;;;22.19;62.09;101873.50;7259228;19;153468;-59
2022/11/13 09:36:57;;;;;;;;;;;;;;;22.20;62.40;101879.97;7267041;19;155091;-58
2022/11/13 09:39:24;;;;;;;;;;;;;;;22.20;62.10;101875.19;7260543;19;153179;-58
2022/11/13 09:41:55;;;;;;;;;;;;;;;22.20;61.82;101878.00;7262471;19;154078;-58
2022/11/13 09:44:22;;;;;;;;;;;;;;;22.21;61.80;101876.88;7259630;19;152056;-58
2022/11/13 09:46:50;;;;;;;;;;;;;;;22.20;61.71;101874.34;7259383;19;153196;-58
2022/11/13 09:49:24;;;;;;;;;;;;;;;22.20;61.48;101869.56;7259264;19;153258;-58
2022/11/13 09:51:52;;;;;;;;;;;;;;;22.20;61.21;101875.19;7257208;19;154143;-59
2022/11/13 09:54:19;;;;;;;;;;;;;;;22.21;61.58;101876.88;7261505;19;153238;-59
2022/11/13 09:56:55;;;;;;;;;;;;;;;22.23;61.70;101880.22;7259082;19;156140;-59
2022/11/13 09:59:22;;;;;;;;;;;;;;;22.22;61.40;101883.31;7262004;19;153704;-59
2022/11/13 10:01:58;;;;;;;;;;;;;;;22.21;61.79;101871.25;7260965;19;155735;-58
2022/11/13 10:04:32;;;;;;;;;;;;;;;22.10;58.49;101872.47;7261815;19;152404;-59
2022/11/13 10:07:03;;;;;;;;;;;;;;;21.97;56.12;101873.16;7259073;19;152817;-58
2022/11/13 10:09:39;;;;;;;;;;;;;;;21.85;54.47;101861.44;7262951;19;154108;-58
2022/11/13 10:12:08;;;;;;;;;;;;;;;21.74;54.56;101867.16;7264073;19;152841;-58
2022/11/13 10:14:38;;;;;;;;;;;;;;;21.68;54.69;101861.84;7260273;19;153480;-58
2022/11/13 10:17:14;;;;;;;;;;;;;;;21.59;53.83;101864.44;7228661;19;155652;-58
2022/11/13 10:19:46;;;;;;;;;;;;;;;21.50;53.85;101871.84;7264327;19;153248;-58
2022/11/13 10:22:20;;;;;;;;;;;;;;;21.34;54.10;101870.28;7255818;19;154221;-58
2022/11/13 10:25:08;;;;;;;;;;;;;;;21.33;54.03;101864.94;7257112;19;153955;-58
2022/11/13 10:27:35;;;;;;;;;;;;;;;21.23;54.10;101866.69;7254254;19;154186;-58
2022/11/13 10:30:02;;;;;;;;;;;;;;;21.15;54.14;101863.66;7256974;19;154329;-58
2022/11/13 10:32:30;;;;;;;;;;;;;;;21.09;54.31;101860.00;7261395;19;153608;-58
2022/11/13 10:35:00;;;;;;;;;;;;;;;21.04;54.29;101871.25;7256954;19;153552;-58
2022/11/13 10:37:30;;;;;;;;;;;;;;;20.96;54.26;101865.41;7251583;19;155587;-58
2022/11/13 10:39:56;;;;;;;;;;;;;;;20.88;54.34;101857.59;7252684;19;153992;-58
2022/11/13 10:42:27;;;;;;;;;;;;;;;20.82;54.81;101854.81;7260808;19;153611;-58
2022/11/13 10:44:55;;;;;;;;;;;;;;;20.77;54.65;101839.94;7251995;19;153893;-58
2022/11/13 10:47:23;;;;;;;;;;;;;;;20.74;55.03;101843.34;7257236;19;154659;-58
2022/11/13 10:50:18;;;;;;;;;;;;;;;20.68;54.98;101833.25;7254456;19;157577;-58
2022/11/13 10:52:47;;;;;;;;;;;;;;;20.62;55.34;101826.00;7251900;19;154650;-57
2022/11/13 10:55:21;;;;;;;;;;;;;;;20.58;55.25;101827.69;7253626;19;155567;-58
2022/11/13 10:57:57;;;;;;;;;;;;;;;20.53;55.36;101816.47;7255000;19;153829;-58
2022/11/13 11:00:28;;;;;;;;;;;;;;;20.49;55.42;101809.75;7252798;19;154272;-58
2022/11/13 11:02:55;;;;;;;;;;;;;;;20.44;55.38;101810.63;7252203;19;153299;-57
2022/11/13 11:05:34;;;;;;;;;;;;;;;20.40;55.60;101803.88;7287759;19;153879;-57
2022/11/13 11:08:07;;;;;;;;;;;;;;;20.37;55.98;101808.13;7285812;19;154162;-57
2022/11/13 11:10:34;;;;;;;;;;;;;;;20.35;56.08;101804.75;7284705;19;154624;-57
2022/11/13 11:13:08;;;;;;;;;;;;;;;20.31;56.35;101788.75;7284561;19;153863;-57
2022/11/13 11:15:42;;;;;;;;;;;;;;;20.25;56.20;101782.31;7285775;19;153848;-57
2022/11/13 11:18:18;;;;;;;;;;;;;;;20.21;56.57;101783.19;7287495;19;154282;-57
2022/11/13 11:20:49;;;;;;;;;;;;;;;20.18;56.26;101778.97;7279696;19;153934;-57
2022/11/13 11:23:18;;;;;;;;;;;;;;;20.15;56.55;101782.34;7283832;19;154412;-57
2022/11/13 11:25:51;;;;;;;;;;;;;;;20.12;57.01;101780.13;7300486;19;152804;-59
2022/11/13 11:28:21;;;;;;;;;;;;;;;20.07;57.05;101773.69;7285472;19;155930;-59
2022/11/13 11:30:52;;;;;;;;;;;;;;;20.03;57.27;101767.81;7291910;19;154042;-58
2022/11/13 11:33:24;;;;;;;;;;;;;;;19.99;57.48;101764.72;7287982;19;153549;-59
2022/11/13 11:35:55;;;;;;;;;;;;;;;19.97;57.39;101760.53;7288659;19;156120;-59
2022/11/13 11:38:32;;;;;;;;;;;;;;;19.99;57.52;101755.44;7291935;19;153709;-59
2022/11/13 11:41:06;;;;;;;;;;;;;;;20.00;57.94;101751.53;7289908;19;153742;-59
2022/11/13 11:43:42;;;;;;;;;;;;;;;19.97;57.89;101744.53;7290069;19;154220;-59
2022/11/13 11:46:11;;;;;;;;;;;;;;;19.96;57.94;101745.66;7289561;19;153472;-57
2022/11/13 11:48:38;;;;;;;;;;;;;;;19.94;57.91;101744.28;7297637;19;155059;-59
2022/11/13 11:51:12;;;;;;;;;;;;;;;19.93;58.11;101740.63;7291921;19;153742;-59
2022/11/13 11:53:52;;;;;;;;;;;;;;;19.91;58.18;101734.44;7289643;19;153374;-57
2022/11/13 11:56:23;;;;;;;;;;;;;;;19.89;57.94;101727.47;7291432;19;154560;-59
2022/11/13 11:59:00;;;;;;;;;;;;;;;19.85;58.65;101731.97;7291492;19;154213;-59
2022/11/13 12:01:28;;;;;;;;;;;;;;;19.83;58.71;101729.44;7290312;19;155365;-59
2022/11/13 12:04:03;;;;;;;;;;;;;;;19.82;58.78;101719.31;7289854;19;154291;-59
2022/11/13 12:06:40;;;;;;;;;;;;;;;19.84;58.78;101719.91;7291022;19;153261;-58
2022/11/13 12:09:13;;;;;;;;;;;;;;;19.88;59.03;101715.41;7291307;19;153710;-59
2022/11/13 12:11:46;;;;;;;;;;;;;;;19.91;59.24;101702.75;7296564;19;154095;-56
2022/11/13 12:14:33;;;;;;;;;;;;;;;19.93;59.48;101692.94;7287076;19;153432;-59
2022/11/13 12:17:03;;;;;;;;;;;;;;;19.97;59.23;101696.00;7254206;19;154673;-59
2022/11/13 12:19:51;;;;;;;;;;;;;;;20.00;59.50;101684.19;7262436;19;153262;-59
2022/11/13 12:22:18;;;;;;;;;;;;;;;20.04;59.47;101685.31;7257846;19;154135;-59
2022/11/13 12:24:55;;;;;;;;;;;;;;;20.07;58.88;101673.53;7258699;19;153302;-59
2022/11/13 12:27:31;;;;;;;;;;;;;;;20.09;58.83;101668.44;7263498;19;154763;-58
2022/11/13 12:30:07;;;;;;;;;;;;;;;20.14;58.67;101667.59;7229104;19;156793;-58
2022/11/13 12:32:36;;;;;;;;;;;;;;;20.16;58.94;101666.19;7253994;19;153768;-58
2022/11/13 12:35:08;;;;;;;;;;;;;;;20.19;58.39;101662.78;7264883;19;154112;-58
2022/11/13 12:37:35;;;;;;;;;;;;;;;20.22;58.74;101641.72;7259500;19;154851;-58